Time;durP1;ratioP1;P1;durP2;ratioP2;P2;SDS_P1;SDS_P2;PMS_P1;PMS_P2;Temp;Humidity;BMP_temperature;BMP_pressure;BME280_temperature;BME280_humidity;BME280_pressure;Samples;Min_cycle;Max_cycle;Signal;HPM_P1;HPM_P2
2023/09/06 09:19:45;;;;;;;10.70;4.72;;;23.80;99.90;;;;;;6308532;22;20264;-95
2023/09/06 09:27:41;;;;;;;7.90;4.95;;;24.10;99.90;;;;;;6074292;23;20022;-96
2023/09/06 10:17:59;;;;;;;;;;;;;;;;;;;;;
2023/09/06 10:30:44;;;;;;;;;;;;;;;;;;;;;
2023/09/06 10:34:32;;;;;;;;;;;;;;;;;;;;;
2023/09/06 10:38:14;;;;;;;;;;;;;;;;;;;;;
2023/09/06 10:49:11;;;;;;;6.70;3.20;;;26.70;99.90;;;;;;6101051;23;20002;-95
2023/09/06 10:52:22;;;;;;;;;;;;;;;;;;;;;
2023/09/06 11:00:22;;;;;;;;;;;;;;;;;;;;;
2023/09/06 11:03:16;;;;;;;7.47;2.85;;;26.90;99.90;;;;;;6121514;23;19909;-96
2023/09/06 11:06:56;;;;;;;4.90;2.97;;;27.00;99.90;;;;;;6107074;23;20014;-96
2023/09/06 11:09:36;;;;;;;7.53;2.65;;;27.20;99.90;;;;;;6104378;23;20018;-92
2023/09/06 11:12:19;;;;;;;;;;;;;;;;;;;;;
2023/09/06 11:14:54;;;;;;;5.03;2.53;;;27.20;99.90;;;;;;6198128;23;20003;-89
2023/09/06 11:17:26;;;;;;;5.53;2.70;;;27.30;99.90;;;;;;6174967;23;20011;-90
2023/09/06 11:20:49;;;;;;;;;;;;;;;;;;;;;
2023/09/06 16:52:47;;;;;;;4.88;2.47;;;30.20;95.10;;;;;;6163354;23;20032;-95
2023/09/06 16:55:33;;;;;;;6.57;2.53;;;29.90;95.40;;;;;;6139812;23;20017;-94
2023/09/06 16:58:08;;;;;;;7.35;2.67;;;29.90;95.50;;;;;;6164085;23;20024;-94
2023/09/06 17:00:47;;;;;;;4.82;2.65;;;29.80;95.70;;;;;;6164109;23;20017;-94
2023/09/06 17:03:13;;;;;;;4.65;2.72;;;29.70;95.40;;;;;;6163867;23;20013;-92
2023/09/06 17:06:02;;;;;;;4.13;2.38;;;29.70;96.10;;;;;;6143257;23;20077;-96
2023/09/06 17:08:47;;;;;;;4.78;2.10;;;29.60;96.40;;;;;;6187412;23;20005;-95
2023/09/06 17:11:16;;;;;;;5.18;2.42;;;29.50;96.00;;;;;;6160431;23;20016;-95
2023/09/06 17:13:54;;;;;;;4.75;2.40;;;29.40;96.30;;;;;;6140285;23;20005;-94
2023/09/06 17:16:32;;;;;;;;;;;;;;;;;;;;;
2023/09/06 17:19:08;;;;;;;4.47;2.20;;;29.30;96.40;;;;;;6156112;23;20093;-94
2023/09/06 17:22:07;;;;;;;5.00;2.00;;;29.20;96.40;;;;;;6183131;23;20044;-94
2023/09/06 17:28:44;;;;;;;6.07;2.33;;;29.00;96.80;;;;;;6161761;23;20082;-96
2023/09/06 17:31:45;;;;;;;4.88;2.22;;;28.90;97.10;;;;;;6130455;23;20265;-96
2023/09/06 17:34:55;;;;;;;;;;;;;;;;;;;;;
2023/09/06 17:37:48;;;;;;;;;;;;;;;;;;;;;
2023/09/06 17:41:01;;;;;;;7.75;2.53;;;28.70;97.80;;;;;;6164644;23;20329;-96
2023/09/06 17:43:41;;;;;;;6.70;2.30;;;28.60;97.70;;;;;;6138385;23;20009;-94
2023/09/06 17:46:28;;;;;;;4.60;2.40;;;28.50;97.70;;;;;;6117920;23;20242;-94
2023/09/06 17:49:09;;;;;;;4.43;2.40;;;28.40;98.30;;;;;;6117100;23;20395;-95
2023/09/06 17:52:09;;;;;;;5.90;2.65;;;28.30;98.70;;;;;;6121951;23;20021;-95
2023/09/06 17:54:48;;;;;;;5.60;2.60;;;28.20;99.20;;;;;;6164266;23;20028;-94
2023/09/06 17:58:04;;;;;;;5.65;2.50;;;28.10;99.50;;;;;;6125391;23;20017;-93
2023/09/06 18:00:41;;;;;;;;;;;28.00;99.90;;;;;;6116748;23;20366;-93
2023/09/06 18:03:38;;;;;;;5.63;2.70;;;27.80;99.90;;;;;;6141598;23;19908;-96
2023/09/06 18:06:44;;;;;;;4.13;2.50;;;27.70;99.90;;;;;;6121660;23;20005;-93
2023/09/06 18:09:29;;;;;;;4.70;2.70;;;27.70;99.90;;;;;;6139005;23;20005;-94
2023/09/06 18:12:20;;;;;;;;;;;;;;;;;;;;;
2023/09/06 18:15:24;;;;;;;6.53;2.90;;;27.50;99.90;;;;;;6121151;23;20370;-93
2023/09/06 18:18:13;;;;;;;5.40;3.05;;;27.40;99.90;;;;;;6144908;23;20017;-94
2023/09/06 18:21:15;;;;;;;7.10;3.28;;;27.30;99.90;;;;;;6141206;23;20013;-94
2023/09/06 18:24:29;;;;;;;5.18;2.88;;;27.20;99.90;;;;;;6138057;23;20017;-93
2023/09/06 18:27:37;;;;;;;9.93;3.75;;;27.10;99.90;;;;;;6119260;23;20057;-94
2023/09/06 18:30:45;;;;;;;6.53;3.40;;;27.00;99.90;;;;;;6124434;23;20079;-93
2023/09/06 18:34:00;;;;;;;8.43;2.97;;;26.80;99.90;;;;;;6170115;23;20300;-94
2023/09/06 18:37:38;;;;;;;;;;;;;;;;;;;;;
2023/09/06 18:40:43;;;;;;;;;;;;;;;;;;;;;
2023/09/06 18:43:50;;;;;;;4.95;3.10;;;26.50;99.90;;;;;;6149180;23;20097;-94
2023/09/06 18:46:49;;;;;;;6.78;2.80;;;26.40;99.90;;;;;;6152164;23;20279;-94
2023/09/06 18:49:48;;;;;;;7.78;3.10;;;26.30;99.90;;;;;;6127478;23;20023;-92
2023/09/06 18:52:55;;;;;;;7.88;3.05;;;26.20;99.90;;;;;;6149297;23;20382;-93
2023/09/06 18:56:01;;;;;;;4.60;3.22;;;26.10;99.90;;;;;;6106316;23;20020;-93
2023/09/06 18:59:13;;;;;;;6.70;3.40;;;26.00;99.90;;;;;;6131263;23;20260;-92
2023/09/06 19:02:21;;;;;;;;;;;;;;;;;;;;;
2023/09/06 19:09:08;;;;;;;7.38;3.47;;;25.80;99.90;;;;;;6134270;23;20058;-93
2023/09/06 19:12:14;;;;;;;;;;;;;;;;;;;;;
2023/09/06 19:15:47;;;;;;;8.13;3.53;;;25.60;99.90;;;;;;6175678;23;20061;-95
2023/09/06 19:22:55;;;;;;;6.13;3.50;;;25.30;99.90;;;;;;6078204;23;20053;-93
2023/09/06 19:26:04;;;;;;;7.85;3.97;;;25.30;99.90;;;;;;6083334;23;20012;-94
2023/09/06 19:29:00;;;;;;;10.27;4.22;;;25.10;99.90;;;;;;6169082;23;20009;-93
2023/09/06 19:32:18;;;;;;;7.15;3.92;;;25.10;99.90;;;;;;6178667;23;20307;-94
2023/09/06 19:35:56;;;;;;;6.18;3.70;;;25.10;99.90;;;;;;6114768;23;20421;-94
2023/09/06 19:38:55;;;;;;;6.90;3.97;;;25.00;99.90;;;;;;6176474;23;20017;-94
2023/09/06 19:41:53;;;;;;;9.68;3.78;;;24.90;99.90;;;;;;6165621;23;20029;-91
2023/09/06 19:44:47;;;;;;;;;;;;;;;;;;;;;
2023/09/06 19:47:54;;;;;;;;;;;;;;;;;;;;;
2023/09/06 19:50:47;;;;;;;7.85;4.28;;;24.70;99.90;;;;;;6167963;23;20016;-95
2023/09/06 19:53:37;;;;;;;;;;;;;;;;;;;;;
2023/09/06 19:56:44;;;;;;;9.20;4.43;;;24.60;99.90;;;;;;6167268;23;20291;-96
2023/09/06 20:04:42;;;;;;;7.22;4.10;;;24.50;99.90;;;;;;6045772;23;20512;-93
2023/09/06 20:07:45;;;;;;;;;;;;;;;;;;;;;
2023/09/06 20:11:00;;;;;;;;;;;;;;;;;;;;;
2023/09/06 20:13:56;;;;;;;6.82;3.63;;;24.40;99.90;;;;;;6130048;23;20017;-92
2023/09/06 20:17:04;;;;;;;;;;;;;;;;;;;;;
2023/09/06 20:20:32;;;;;;;7.63;3.75;;;24.40;99.90;;;;;;6060315;23;20075;-91
2023/09/06 20:27:32;;;;;;;7.00;4.47;;;24.40;99.90;;;;;;6143488;23;20017;-92
2023/09/06 20:30:54;;;;;;;;;;;;;;;;;;;;;
2023/09/06 20:33:50;;;;;;;6.03;3.60;;;24.30;99.90;;;;;;6123871;23;20387;-91
2023/09/06 20:36:52;;;;;;;5.18;3.17;;;24.30;99.90;;;;;;6153486;23;20013;-91
2023/09/06 20:40:03;;;;;;;5.60;3.00;;;24.30;99.90;;;;;;6125297;23;20425;-92
2023/09/06 20:43:15;;;;;;;8.32;3.13;;;24.30;99.90;;;;;;6108132;23;20060;-92
2023/09/06 20:50:38;;;;;;;6.72;2.90;;;24.20;99.90;;;;;;6034274;23;20036;-93
2023/09/06 20:54:06;;;;;;;6.47;2.60;;;24.10;99.90;;;;;;6148199;23;20009;-92
2023/09/06 20:56:44;;;;;;;6.05;2.90;;;24.10;99.90;;;;;;6152701;23;20017;-91
2023/09/06 21:00:12;;;;;;;;;;;;;;;;;;;;;
2023/09/06 21:03:18;;;;;;;5.97;2.83;;;24.00;99.90;;;;;;6151829;23;20020;-91
2023/09/06 21:06:38;;;;;;;;;;;;;;;;;;;;;
2023/09/06 21:09:52;;;;;;;6.35;2.85;;;24.00;99.90;;;;;;6156491;23;20092;-91
2023/09/06 21:13:11;;;;;;;5.03;2.95;;;23.90;99.90;;;;;;6134626;23;20084;-92
2023/09/06 21:16:20;;;;;;;5.63;2.75;;;23.90;99.90;;;;;;6152819;23;20013;-92
2023/09/06 21:19:16;;;;;;;6.70;2.90;;;23.90;99.90;;;;;;6152911;23;20012;-91
2023/09/06 21:22:05;;;;;;;6.72;2.67;;;23.90;99.90;;;;;;6120378;23;20112;-92
2023/09/06 21:28:12;;;;;;;4.53;2.50;;;23.80;99.90;;;;;;6161986;23;20389;-92
2023/09/06 21:31:08;;;;;;;4.80;2.53;;;23.80;99.90;;;;;;6121380;23;20009;-91
2023/09/06 21:33:56;;;;;;;;;;;23.80;99.90;;;;;;6144528;23;20009;-92
2023/09/06 21:36:30;;;;;;;6.60;2.40;;;23.70;99.90;;;;;;6116265;23;20000;-91
2023/09/06 21:39:13;;;;;;;;;;;;;;;;;;;;;
2023/09/06 21:42:35;;;;;;;4.28;2.05;;;23.70;99.90;;;;;;6136000;23;20005;-91
2023/09/06 21:45:29;;;;;;;6.18;2.25;;;23.70;99.90;;;;;;6140246;23;20028;-91
2023/09/06 21:48:36;;;;;;;4.63;2.20;;;23.70;99.90;;;;;;6126085;23;20052;-92
2023/09/06 21:51:22;;;;;;;;;;;23.60;99.90;;;;;;6123237;23;20378;-91
2023/09/06 21:54:13;;;;;;;7.03;2.25;;;23.60;99.90;;;;;;6143503;23;20321;-90
2023/09/06 21:56:46;;;;;;;5.47;2.20;;;23.60;99.90;;;;;;6115485;23;20391;-91
2023/09/06 21:59:31;;;;;;;8.32;2.40;;;23.60;99.90;;;;;;6119893;23;20024;-91
2023/09/06 22:02:09;;;;;;;4.32;2.10;;;23.60;99.90;;;;;;6141057;23;20382;-91
2023/09/06 22:09:02;;;;;;;5.25;2.38;;;23.60;99.90;;;;;;6163668;23;20009;-91
2023/09/06 22:12:04;;;;;;;5.93;2.30;;;23.50;99.90;;;;;;6127298;23;20009;-91
2023/09/06 22:15:04;;;;;;;;;;;;;;;;;;;;;
2023/09/06 22:17:56;;;;;;;4.38;2.08;;;23.40;99.90;;;;;;6141901;23;20032;-92
2023/09/06 22:20:45;;;;;;;3.92;2.00;;;23.40;99.90;;;;;;6118457;23;20378;-91
2023/09/06 22:23:20;;;;;;;12.65;2.42;;;23.40;99.90;;;;;;6072010;23;20390;-90
2023/09/06 22:26:14;;;;;;;4.93;2.08;;;23.40;99.90;;;;;;6123226;23;20001;-91
2023/09/06 22:28:55;;;;;;;4.97;2.45;;;23.40;99.90;;;;;;6125721;23;20100;-92
2023/09/06 22:31:37;;;;;;;3.58;2.00;;;23.30;99.90;;;;;;6098309;23;20446;-92
2023/09/06 22:34:18;;;;;;;7.00;2.03;;;23.30;99.90;;;;;;6140836;23;20009;-91
2023/09/06 22:36:57;;;;;;;8.10;2.45;;;23.30;99.90;;;;;;6138115;23;20009;-95
2023/09/06 22:39:36;;;;;;;11.88;3.25;;;23.30;99.90;;;;;;6116882;23;20005;-91
2023/09/06 22:42:25;;;;;;;6.50;2.55;;;23.20;99.90;;;;;;6163323;23;20016;-90
2023/09/06 22:45:52;;;;;;;4.40;2.17;;;23.30;99.90;;;;;;6129861;23;20001;-91
2023/09/06 22:48:23;;;;;;;7.43;2.33;;;23.20;99.90;;;;;;6138652;23;20016;-91
2023/09/06 22:51:14;;;;;;;;;;;;;;;;;;;;;
2023/09/06 22:54:15;;;;;;;4.07;2.25;;;23.10;99.90;;;;;;6122660;23;20009;-91
2023/09/06 22:56:49;;;;;;;5.40;2.40;;;23.10;99.90;;;;;;6139476;23;20397;-91
2023/09/06 22:59:25;;;;;;;5.10;2.70;;;23.10;99.90;;;;;;6116481;23;20005;-91
2023/09/06 23:02:06;;;;;;;4.75;2.42;;;23.10;99.90;;;;;;6096966;23;20473;-90
2023/09/06 23:04:58;;;;;;;5.28;2.40;;;23.10;99.90;;;;;;6124911;23;20001;-92
2023/09/06 23:07:39;;;;;;;;;;;;;;;;;;;;;
2023/09/06 23:10:16;;;;;;;4.00;2.33;;;23.00;99.90;;;;;;6139691;23;20015;-91
2023/09/06 23:13:54;;;;;;;;;;;;;;;;;;;;;
2023/09/06 23:16:28;;;;;;;7.65;2.65;;;22.90;99.90;;;;;;6135632;23;20017;-91
2023/09/06 23:19:14;;;;;;;5.95;2.70;;;22.80;99.90;;;;;;6116137;23;20383;-92
2023/09/06 23:21:54;;;;;;;6.78;2.83;;;22.70;99.90;;;;;;6115514;23;20053;-92
2023/09/06 23:24:24;;;;;;;7.00;2.80;;;22.70;99.90;;;;;;6138604;23;20267;-91
2023/09/06 23:27:27;;;;;;;6.28;2.95;;;22.70;99.90;;;;;;6148097;23;20002;-90
2023/09/06 23:30:22;;;;;;;4.78;2.88;;;22.60;99.90;;;;;;6107063;23;20024;-91
2023/09/06 23:33:24;;;;;;;5.72;2.78;;;22.50;99.90;;;;;;6117391;23;20005;-91
2023/09/06 23:35:51;;;;;;;4.70;2.90;;;22.50;99.90;;;;;;6117063;23;20081;-91
2023/09/06 23:38:30;;;;;;;5.28;3.05;;;22.50;99.90;;;;;;6116744;23;20024;-91
2023/09/06 23:41:27;;;;;;;8.32;3.10;;;22.50;99.90;;;;;;6116758;23;20296;-92
2023/09/06 23:44:03;;;;;;;8.82;2.95;;;22.40;99.90;;;;;;6139544;23;20009;-91
2023/09/06 23:47:00;;;;;;;6.95;3.08;;;22.40;99.90;;;;;;6093552;23;20016;-91
2023/09/06 23:49:59;;;;;;;;;;;;;;;;;;;;;
2023/09/06 23:52:52;;;;;;;5.15;3.45;;;22.30;99.90;;;;;;6132152;23;20322;-91
2023/09/06 23:55:49;;;;;;;6.93;3.53;;;22.30;99.90;;;;;;6116373;23;20009;-92
2023/09/06 23:58:43;;;;;;;7.97;3.90;;;22.20;99.90;;;;;;6119266;23;20442;-91
